sensor_id;sensor_type;location;lat;lon;timestamp;pressure;altitude;pressure_sealevel;temperature;humidity
61324;BME280;47203;48.428;11.974;2023-12-29T00:01:29;96947.91;;;12.73;40.66
61324;BME280;47203;48.428;11.974;2023-12-29T00:03:35;96946.31;;;12.72;40.44
61324;BME280;47203;48.428;11.974;2023-12-29T00:05:38;96960.56;;;12.71;40.61
61324;BME280;47203;48.428;11.974;2023-12-29T00:07:43;96947.13;;;12.68;40.76
61324;BME280;47203;48.428;11.974;2023-12-29T00:09:47;96952.69;;;12.66;40.95
61324;BME280;47203;48.428;11.974;2023-12-29T00:11:51;96932.66;;;12.55;40.70
61324;BME280;47203;48.428;11.974;2023-12-29T00:13:54;96935.53;;;12.58;40.55
61324;BME280;47203;48.428;11.974;2023-12-29T00:15:57;96931.84;;;12.60;40.81
61324;BME280;47203;48.428;11.974;2023-12-29T00:18:01;96936.63;;;12.57;40.81
61324;BME280;47203;48.428;11.974;2023-12-29T00:20:04;96931.38;;;12.47;40.88
61324;BME280;47203;48.428;11.974;2023-12-29T00:22:09;96934.00;;;12.52;40.80
61324;BME280;47203;48.428;11.974;2023-12-29T00:24:14;96926.34;;;12.51;40.95
61324;BME280;47203;48.428;11.974;2023-12-29T00:26:19;96926.06;;;12.52;41.02
61324;BME280;47203;48.428;11.974;2023-12-29T00:28:28;96928.22;;;12.50;41.13
61324;BME280;47203;48.428;11.974;2023-12-29T00:30:31;96924.75;;;12.50;41.32
61324;BME280;47203;48.428;11.974;2023-12-29T00:32:55;96916.66;;;12.36;40.96
61324;BME280;47203;48.428;11.974;2023-12-29T00:34:58;96919.25;;;12.41;41.19
61324;BME280;47203;48.428;11.974;2023-12-29T00:37:03;96919.78;;;12.43;41.28
61324;BME280;47203;48.428;11.974;2023-12-29T00:39:07;96921.66;;;12.43;41.48
61324;BME280;47203;48.428;11.974;2023-12-29T00:41:12;96917.94;;;12.44;41.69
61324;BME280;47203;48.428;11.974;2023-12-29T00:43:16;96924.00;;;12.44;41.75
61324;BME280;47203;48.428;11.974;2023-12-29T00:45:20;96920.03;;;12.47;41.73
61324;BME280;47203;48.428;11.974;2023-12-29T00:47:24;96923.72;;;12.51;41.88
61324;BME280;47203;48.428;11.974;2023-12-29T00:49:28;96926.06;;;12.52;41.83
61324;BME280;47203;48.428;11.974;2023-12-29T00:51:31;96923.69;;;12.56;41.96
61324;BME280;47203;48.428;11.974;2023-12-29T00:53:35;96928.69;;;12.57;42.03
61324;BME280;47203;48.428;11.974;2023-12-29T00:55:38;96936.06;;;12.61;41.95
61324;BME280;47203;48.428;11.974;2023-12-29T00:57:42;96938.69;;;12.66;42.22
61324;BME280;47203;48.428;11.974;2023-12-29T00:59:47;96937.34;;;12.68;41.83
61324;BME280;47203;48.428;11.974;2023-12-29T01:01:51;96936.03;;;12.71;41.95
61324;BME280;47203;48.428;11.974;2023-12-29T01:03:55;96937.56;;;12.77;41.95
61324;BME280;47203;48.428;11.974;2023-12-29T01:05:59;96940.75;;;12.79;41.85
61324;BME280;47203;48.428;11.974;2023-12-29T01:08:03;96921.72;;;12.82;42.13
61324;BME280;47203;48.428;11.974;2023-12-29T01:10:08;96929.63;;;12.82;42.10
61324;BME280;47203;48.428;11.974;2023-12-29T01:12:12;96924.34;;;12.82;42.03
61324;BME280;47203;48.428;11.974;2023-12-29T01:14:18;96927.00;;;12.82;42.16
61324;BME280;47203;48.428;11.974;2023-12-29T01:16:21;96932.00;;;12.84;42.22
61324;BME280;47203;48.428;11.974;2023-12-29T01:18:25;96922.22;;;12.84;42.26
61324;BME280;47203;48.428;11.974;2023-12-29T01:20:28;96925.91;;;12.83;42.19
61324;BME280;47203;48.428;11.974;2023-12-29T01:22:32;96924.34;;;12.82;41.98
61324;BME280;47203;48.428;11.974;2023-12-29T01:24:35;96930.41;;;12.83;42.08
61324;BME280;47203;48.428;11.974;2023-12-29T01:26:47;96922.53;;;12.78;42.25
61324;BME280;47203;48.428;11.974;2023-12-29T01:28:51;96929.66;;;12.77;42.14
61324;BME280;47203;48.428;11.974;2023-12-29T01:30:55;96929.69;;;12.72;42.17
61324;BME280;47203;48.428;11.974;2023-12-29T01:32:59;96928.38;;;12.69;42.11
61324;BME280;47203;48.428;11.974;2023-12-29T01:35:03;96923.09;;;12.64;42.26
61324;BME280;47203;48.428;11.974;2023-12-29T01:37:08;96932.91;;;12.64;42.27
61324;BME280;47203;48.428;11.974;2023-12-29T01:39:12;96939.78;;;12.60;42.27
61324;BME280;47203;48.428;11.974;2023-12-29T01:41:15;96936.09;;;12.55;42.33
61324;BME280;47203;48.428;11.974;2023-12-29T01:43:19;96933.22;;;12.52;42.46
61324;BME280;47203;48.428;11.974;2023-12-29T01:45:24;96930.59;;;12.47;42.33
61324;BME280;47203;48.428;11.974;2023-12-29T01:47:30;96932.22;;;12.43;42.50
61324;BME280;47203;48.428;11.974;2023-12-29T01:49:34;96928.25;;;12.40;42.66
61324;BME280;47203;48.428;11.974;2023-12-29T01:51:38;96930.09;;;12.39;42.77
61324;BME280;47203;48.428;11.974;2023-12-29T01:53:40;96926.94;;;12.37;42.75
61324;BME280;47203;48.428;11.974;2023-12-29T01:55:50;96934.34;;;12.35;42.96
61324;BME280;47203;48.428;11.974;2023-12-29T01:57:55;96922.75;;;12.31;42.84
61324;BME280;47203;48.428;11.974;2023-12-29T01:59:58;96919.56;;;12.29;43.04
61324;BME280;47203;48.428;11.974;2023-12-29T02:02:03;96910.63;;;12.25;43.12
61324;BME280;47203;48.428;11.974;2023-12-29T02:04:08;96898.75;;;12.22;43.09
61324;BME280;47203;48.428;11.974;2023-12-29T02:06:13;96899.31;;;12.19;43.13
61324;BME280;47203;48.428;11.974;2023-12-29T02:08:19;96895.84;;;12.19;43.42
61324;BME280;47203;48.428;11.974;2023-12-29T02:10:23;96891.38;;;12.14;43.39
61324;BME280;47203;48.428;11.974;2023-12-29T02:12:30;96899.56;;;12.13;43.21
61324;BME280;47203;48.428;11.974;2023-12-29T02:14:41;96901.44;;;12.12;43.26
61324;BME280;47203;48.428;11.974;2023-12-29T02:16:58;96893.25;;;12.09;43.47
61324;BME280;47203;48.428;11.974;2023-12-29T02:19:20;96887.75;;;12.05;43.46
61324;BME280;47203;48.428;11.974;2023-12-29T02:21:26;96886.66;;;12.06;43.43
61324;BME280;47203;48.428;11.974;2023-12-29T02:23:30;96880.88;;;12.04;43.71
61324;BME280;47203;48.428;11.974;2023-12-29T02:25:34;96877.19;;;12.00;43.70
61324;BME280;47203;48.428;11.974;2023-12-29T02:27:48;96878.53;;;11.97;43.60
61324;BME280;47203;48.428;11.974;2023-12-29T02:30:11;96882.50;;;11.95;43.69
61324;BME280;47203;48.428;11.974;2023-12-29T02:32:20;96882.75;;;11.93;43.72
61324;BME280;47203;48.428;11.974;2023-12-29T02:34:27;96888.81;;;11.94;43.81
61324;BME280;47203;48.428;11.974;2023-12-29T02:36:34;96890.69;;;11.93;43.80
61324;BME280;47203;48.428;11.974;2023-12-29T02:38:45;96888.81;;;11.94;43.66
61324;BME280;47203;48.428;11.974;2023-12-29T02:40:49;96892.25;;;11.94;43.77
61324;BME280;47203;48.428;11.974;2023-12-29T02:42:54;96879.84;;;11.95;43.72
61324;BME280;47203;48.428;11.974;2023-12-29T02:44:57;96883.28;;;11.95;43.70
61324;BME280;47203;48.428;11.974;2023-12-29T02:47:00;96875.38;;;11.95;43.52
61324;BME280;47203;48.428;11.974;2023-12-29T02:49:06;96871.94;;;11.95;43.58
61324;BME280;47203;48.428;11.974;2023-12-29T02:51:13;96859.53;;;11.95;43.62
61324;BME280;47203;48.428;11.974;2023-12-29T02:53:17;96857.69;;;11.96;43.70
61324;BME280;47203;48.428;11.974;2023-12-29T02:55:20;96846.63;;;11.94;43.55
61324;BME280;47203;48.428;11.974;2023-12-29T02:57:25;96851.13;;;11.93;43.58
61324;BME280;47203;48.428;11.974;2023-12-29T02:59:29;96840.81;;;11.92;43.68
61324;BME280;47203;48.428;11.974;2023-12-29T03:01:32;96840.56;;;11.93;43.63
61324;BME280;47203;48.428;11.974;2023-12-29T03:03:36;96839.47;;;11.94;43.57
61324;BME280;47203;48.428;11.974;2023-12-29T03:05:42;96844.50;;;11.96;43.77
61324;BME280;47203;48.428;11.974;2023-12-29T03:07:45;96831.84;;;11.98;43.53
61324;BME280;47203;48.428;11.974;2023-12-29T03:09:49;96827.06;;;12.00;43.75
61324;BME280;47203;48.428;11.974;2023-12-29T03:11:53;96829.72;;;12.00;43.81
61324;BME280;47203;48.428;11.974;2023-12-29T03:13:57;96827.59;;;12.02;43.60
61324;BME280;47203;48.428;11.974;2023-12-29T03:16:01;96827.34;;;12.03;43.58
61324;BME280;47203;48.428;11.974;2023-12-29T03:18:05;96826.25;;;12.04;43.53
61324;BME280;47203;48.428;11.974;2023-12-29T03:20:10;96823.63;;;12.04;43.48
61324;BME280;47203;48.428;11.974;2023-12-29T03:22:14;96818.06;;;12.06;43.65
61324;BME280;47203;48.428;11.974;2023-12-29T03:24:17;96830.47;;;12.05;43.71
61324;BME280;47203;48.428;11.974;2023-12-29T03:26:20;96833.66;;;12.08;43.63
61324;BME280;47203;48.428;11.974;2023-12-29T03:28:23;96823.88;;;12.08;43.54
61324;BME280;47203;48.428;11.974;2023-12-29T03:30:28;96819.94;;;12.05;43.38
61324;BME280;47203;48.428;11.974;2023-12-29T03:32:32;96823.34;;;12.06;43.56
61324;BME280;47203;48.428;11.974;2023-12-29T03:34:35;96826.25;;;12.04;43.62
61324;BME280;47203;48.428;11.974;2023-12-29T03:36:39;96828.09;;;12.04;43.58
61324;BME280;47203;48.428;11.974;2023-12-29T03:38:43;96819.41;;;12.03;43.58
61324;BME280;47203;48.428;11.974;2023-12-29T03:40:46;96824.16;;;12.01;43.54
61324;BME280;47203;48.428;11.974;2023-12-29T03:42:50;96814.16;;;11.98;43.39
61324;BME280;47203;48.428;11.974;2023-12-29T03:44:54;96821.28;;;11.98;43.36
61324;BME280;47203;48.428;11.974;2023-12-29T03:46:59;96815.47;;;11.96;43.55
61324;BME280;47203;48.428;11.974;2023-12-29T03:49:03;96809.41;;;11.95;43.26
61324;BME280;47203;48.428;11.974;2023-12-29T03:51:06;96806.28;;;11.93;43.35
61324;BME280;47203;48.428;11.974;2023-12-29T03:53:09;96812.84;;;11.91;43.52
61324;BME280;47203;48.428;11.974;2023-12-29T03:55:13;96808.09;;;11.87;43.40
61324;BME280;47203;48.428;11.974;2023-12-29T03:57:18;96809.94;;;11.87;43.52
61324;BME280;47203;48.428;11.974;2023-12-29T03:59:21;96810.47;;;11.84;43.40
61324;BME280;47203;48.428;11.974;2023-12-29T04:01:25;96817.84;;;11.87;43.47
61324;BME280;47203;48.428;11.974;2023-12-29T04:03:33;96813.94;;;11.84;43.42
61324;BME280;47203;48.428;11.974;2023-12-29T04:05:36;96814.97;;;11.88;43.37
61324;BME280;47203;48.428;11.974;2023-12-29T04:07:41;96809.69;;;11.88;43.20
61324;BME280;47203;48.428;11.974;2023-12-29T04:09:44;96811.25;;;11.90;43.41
61324;BME280;47203;48.428;11.974;2023-12-29T04:11:48;96818.91;;;11.91;43.43
61324;BME280;47203;48.428;11.974;2023-12-29T04:13:51;96814.19;;;11.93;43.43
61324;BME280;47203;48.428;11.974;2023-12-29T04:15:53;96808.91;;;11.93;43.39
61324;BME280;47203;48.428;11.974;2023-12-29T04:17:57;96808.63;;;11.95;43.38
61324;BME280;47203;48.428;11.974;2023-12-29T04:20:03;96800.44;;;11.96;43.57
61324;BME280;47203;48.428;11.974;2023-12-29T04:22:07;96805.19;;;11.99;43.28
61324;BME280;47203;48.428;11.974;2023-12-29T04:24:10;96814.69;;;12.00;43.24
61324;BME280;47203;48.428;11.974;2023-12-29T04:26:14;96805.69;;;12.01;43.30
61324;BME280;47203;48.428;11.974;2023-12-29T04:28:19;96805.16;;;12.04;43.74
61324;BME280;47203;48.428;11.974;2023-12-29T04:30:23;96798.81;;;12.05;43.24
61324;BME280;47203;48.428;11.974;2023-12-29T04:32:30;96802.00;;;12.08;43.13
61324;BME280;47203;48.428;11.974;2023-12-29T04:34:33;96804.09;;;12.11;43.19
61324;BME280;47203;48.428;11.974;2023-12-29T04:36:40;96796.94;;;12.11;43.09
61324;BME280;47203;48.428;11.974;2023-12-29T04:38:43;96795.63;;;12.14;43.16
61324;BME280;47203;48.428;11.974;2023-12-29T04:40:46;96796.94;;;12.16;43.02
61324;BME280;47203;48.428;11.974;2023-12-29T04:42:50;96804.59;;;12.18;43.02
61324;BME280;47203;48.428;11.974;2023-12-29T04:44:53;96803.50;;;12.19;43.12
61324;BME280;47203;48.428;11.974;2023-12-29T04:46:59;96805.34;;;12.18;43.05
61324;BME280;47203;48.428;11.974;2023-12-29T04:49:02;96795.31;;;12.20;42.98
61324;BME280;47203;48.428;11.974;2023-12-29T04:51:05;96795.31;;;12.20;42.95
61324;BME280;47203;48.428;11.974;2023-12-29T04:53:10;96791.13;;;12.19;43.07
61324;BME280;47203;48.428;11.974;2023-12-29T04:55:14;96803.47;;;12.24;42.84
61324;BME280;47203;48.428;11.974;2023-12-29T04:57:17;96812.44;;;12.28;42.91
61324;BME280;47203;48.428;11.974;2023-12-29T04:59:20;96803.44;;;12.29;43.00
61324;BME280;47203;48.428;11.974;2023-12-29T05:01:24;96808.44;;;12.31;42.80
61324;BME280;47203;48.428;11.974;2023-12-29T05:03:27;96800.53;;;12.31;42.86
61324;BME280;47203;48.428;11.974;2023-12-29T05:05:30;96790.50;;;12.33;42.90
61324;BME280;47203;48.428;11.974;2023-12-29T05:07:33;96798.41;;;12.33;42.77
61324;BME280;47203;48.428;11.974;2023-12-29T05:09:37;96790.78;;;12.31;42.77
61324;BME280;47203;48.428;11.974;2023-12-29T05:11:42;96789.44;;;12.34;42.85
61324;BME280;47203;48.428;11.974;2023-12-29T05:13:45;96780.44;;;12.35;42.80
61324;BME280;47203;48.428;11.974;2023-12-29T05:15:49;96784.69;;;12.36;42.69
61324;BME280;47203;48.428;11.974;2023-12-29T05:17:51;96789.97;;;12.36;42.83
61324;BME280;47203;48.428;11.974;2023-12-29T05:19:54;96788.66;;;12.33;42.88
61324;BME280;47203;48.428;11.974;2023-12-29T05:21:58;96793.16;;;12.33;42.84
61324;BME280;47203;48.428;11.974;2023-12-29T05:24:02;96794.19;;;12.32;42.92
61324;BME280;47203;48.428;11.974;2023-12-29T05:26:07;96793.41;;;12.31;42.76
61324;BME280;47203;48.428;11.974;2023-12-29T05:28:11;96796.84;;;12.32;42.77
61324;BME280;47203;48.428;11.974;2023-12-29T05:30:15;96797.13;;;12.30;42.76
61324;BME280;47203;48.428;11.974;2023-12-29T05:32:17;96801.13;;;12.22;42.91
61324;BME280;47203;48.428;11.974;2023-12-29T05:34:21;96802.38;;;12.30;42.65
61324;BME280;47203;48.428;11.974;2023-12-29T05:36:24;96805.03;;;12.30;42.93
61324;BME280;47203;48.428;11.974;2023-12-29T05:38:28;96794.75;;;12.29;42.58
61324;BME280;47203;48.428;11.974;2023-12-29T05:40:31;96802.38;;;12.30;42.69
61324;BME280;47203;48.428;11.974;2023-12-29T05:42:35;96800.03;;;12.29;42.76
61324;BME280;47203;48.428;11.974;2023-12-29T05:44:38;96812.16;;;12.30;42.79
61324;BME280;47203;48.428;11.974;2023-12-29T05:47:07;96807.97;;;12.23;42.66
61324;BME280;47203;48.428;11.974;2023-12-29T05:49:10;96807.97;;;12.23;42.73
61324;BME280;47203;48.428;11.974;2023-12-29T05:51:14;96809.00;;;12.28;42.70
61324;BME280;47203;48.428;11.974;2023-12-29T05:53:17;96809.53;;;12.30;42.57
61324;BME280;47203;48.428;11.974;2023-12-29T05:55:21;96810.59;;;12.29;42.91
61324;BME280;47203;48.428;11.974;2023-12-29T05:57:24;96809.53;;;12.30;42.66
61324;BME280;47203;48.428;11.974;2023-12-29T05:59:29;96810.31;;;12.30;42.58
61324;BME280;47203;48.428;11.974;2023-12-29T06:01:35;96813.22;;;12.29;42.69
61324;BME280;47203;48.428;11.974;2023-12-29T06:03:38;96815.03;;;12.33;42.59
61324;BME280;47203;48.428;11.974;2023-12-29T06:05:42;96823.22;;;12.37;42.55
61324;BME280;47203;48.428;11.974;2023-12-29T06:07:48;96818.16;;;12.40;42.45
61324;BME280;47203;48.428;11.974;2023-12-29T06:09:51;96820.53;;;12.42;42.43
61324;BME280;47203;48.428;11.974;2023-12-29T06:11:57;96833.19;;;12.45;42.52
61324;BME280;47203;48.428;11.974;2023-12-29T06:14:01;96823.44;;;12.46;42.54
61324;BME280;47203;48.428;11.974;2023-12-29T06:16:06;96827.88;;;12.50;42.44
61324;BME280;47203;48.428;11.974;2023-12-29T06:18:09;96831.56;;;12.54;42.48
61324;BME280;47203;48.428;11.974;2023-12-29T06:20:13;96832.06;;;12.56;42.49
61324;BME280;47203;48.428;11.974;2023-12-29T06:22:16;96832.56;;;12.58;42.54
61324;BME280;47203;48.428;11.974;2023-12-29T06:24:20;96822.81;;;12.59;42.58
61324;BME280;47203;48.428;11.974;2023-12-29T06:26:24;96813.31;;;12.58;42.28
61324;BME280;47203;48.428;11.974;2023-12-29T06:28:27;96817.75;;;12.63;42.46
61324;BME280;47203;48.428;11.974;2023-12-29T06:30:31;96826.22;;;12.65;42.37
61324;BME280;47203;48.428;11.974;2023-12-29T06:32:36;96820.94;;;12.65;42.34
61324;BME280;47203;48.428;11.974;2023-12-29T06:34:40;96828.56;;;12.66;42.33
61324;BME280;47203;48.428;11.974;2023-12-29T06:36:45;96830.13;;;12.67;42.35
61324;BME280;47203;48.428;11.974;2023-12-29T06:38:48;96828.81;;;12.70;42.20
61324;BME280;47203;48.428;11.974;2023-12-29T06:40:53;96831.44;;;12.70;42.31
61324;BME280;47203;48.428;11.974;2023-12-29T06:42:57;96832.25;;;12.70;42.10
61324;BME280;47203;48.428;11.974;2023-12-29T06:45:00;96828.81;;;12.70;42.37
61324;BME280;47203;48.428;11.974;2023-12-29T06:47:04;96833.03;;;12.71;42.40
61324;BME280;47203;48.428;11.974;2023-12-29T06:49:10;96830.66;;;12.69;42.41
61324;BME280;47203;48.428;11.974;2023-12-29T06:51:17;96835.41;;;12.72;42.39
61324;BME280;47203;48.428;11.974;2023-12-29T06:53:21;96835.91;;;12.74;42.43
61324;BME280;47203;48.428;11.974;2023-12-29T06:55:28;96836.97;;;12.73;42.39
61324;BME280;47203;48.428;11.974;2023-12-29T06:57:31;96837.47;;;12.75;42.35
61324;BME280;47203;48.428;11.974;2023-12-29T06:59:34;96840.91;;;12.76;42.30
61324;BME280;47203;48.428;11.974;2023-12-29T07:01:39;96828.50;;;12.77;42.16
61324;BME280;47203;48.428;11.974;2023-12-29T07:03:43;96839.06;;;12.77;42.33
61324;BME280;47203;48.428;11.974;2023-12-29T07:05:48;96831.44;;;12.75;42.54
61324;BME280;47203;48.428;11.974;2023-12-29T07:07:52;96827.97;;;12.74;42.36
61324;BME280;47203;48.428;11.974;2023-12-29T07:09:55;96830.34;;;12.76;42.43
61324;BME280;47203;48.428;11.974;2023-12-29T07:11:58;96826.66;;;12.77;42.47
61324;BME280;47203;48.428;11.974;2023-12-29T07:14:01;96832.47;;;12.79;42.44
61324;BME280;47203;48.428;11.974;2023-12-29T07:16:05;96838.53;;;12.80;42.40
61324;BME280;47203;48.428;11.974;2023-12-29T07:18:09;96841.38;;;12.83;42.46
61324;BME280;47203;48.428;11.974;2023-12-29T07:20:13;96838.75;;;12.83;42.48
61324;BME280;47203;48.428;11.974;2023-12-29T07:22:17;96838.47;;;12.85;42.44
61324;BME280;47203;48.428;11.974;2023-12-29T07:24:21;96847.69;;;12.87;42.46
61324;BME280;47203;48.428;11.974;2023-12-29T07:26:24;96851.66;;;12.90;42.32
61324;BME280;47203;48.428;11.974;2023-12-29T07:28:28;96849.00;;;12.90;42.52
61324;BME280;47203;48.428;11.974;2023-12-29T07:30:31;96841.09;;;12.90;42.49
61324;BME280;47203;48.428;11.974;2023-12-29T07:32:35;96837.09;;;12.92;42.40
61324;BME280;47203;48.428;11.974;2023-12-29T07:34:38;96844.22;;;12.92;42.57
61324;BME280;47203;48.428;11.974;2023-12-29T07:36:42;96843.66;;;12.95;42.54
61324;BME280;47203;48.428;11.974;2023-12-29T07:38:47;96850.03;;;12.94;42.59
61324;BME280;47203;48.428;11.974;2023-12-29T07:40:51;96856.63;;;12.97;42.79
61324;BME280;47203;48.428;11.974;2023-12-29T07:42:55;96859.78;;;12.99;42.58
61324;BME280;47203;48.428;11.974;2023-12-29T07:44:58;96862.66;;;13.02;42.83
61324;BME280;47203;48.428;11.974;2023-12-29T07:47:03;96848.09;;;13.05;42.67
61324;BME280;47203;48.428;11.974;2023-12-29T07:49:07;96842.25;;;13.08;42.51
61324;BME280;47203;48.428;11.974;2023-12-29T07:51:11;96844.34;;;13.11;42.63
61324;BME280;47203;48.428;11.974;2023-12-29T07:53:16;96857.56;;;13.11;42.67
61324;BME280;47203;48.428;11.974;2023-12-29T07:55:20;96856.22;;;13.14;42.66
61324;BME280;47203;48.428;11.974;2023-12-29T07:57:23;96851.97;;;13.18;42.69
61324;BME280;47203;48.428;11.974;2023-12-29T07:59:26;96856.19;;;13.19;42.55
61324;BME280;47203;48.428;11.974;2023-12-29T08:01:29;96854.81;;;13.21;42.72
61324;BME280;47203;48.428;11.974;2023-12-29T08:03:32;96851.94;;;13.23;42.84
61324;BME280;47203;48.428;11.974;2023-12-29T08:05:36;96851.66;;;13.24;42.80
61324;BME280;47203;48.428;11.974;2023-12-29T08:07:39;96851.38;;;13.26;42.78
61324;BME280;47203;48.428;11.974;2023-12-29T08:09:44;96854.03;;;13.26;42.80
61324;BME280;47203;48.428;11.974;2023-12-29T08:11:49;96854.81;;;13.26;42.78
61324;BME280;47203;48.428;11.974;2023-12-29T08:13:52;96852.66;;;13.28;42.79
61324;BME280;47203;48.428;11.974;2023-12-29T08:15:57;96857.66;;;13.30;42.95
61324;BME280;47203;48.428;11.974;2023-12-29T08:18:00;96861.63;;;13.33;42.82
61324;BME280;47203;48.428;11.974;2023-12-29T08:20:06;96865.84;;;13.34;42.88
61324;BME280;47203;48.428;11.974;2023-12-29T08:22:10;96868.72;;;13.37;43.09
61324;BME280;47203;48.428;11.974;2023-12-29T08:24:14;96868.72;;;13.37;42.98
61324;BME280;47203;48.428;11.974;2023-12-29T08:26:17;96861.06;;;13.41;43.01
61324;BME280;47203;48.428;11.974;2023-12-29T08:28:21;96865.22;;;13.47;42.93
61324;BME280;47203;48.428;11.974;2023-12-29T08:30:26;96870.97;;;13.54;42.81
61324;BME280;47203;48.428;11.974;2023-12-29T08:32:29;96861.13;;;13.60;42.99
61324;BME280;47203;48.428;11.974;2023-12-29T08:34:33;96867.66;;;13.68;42.73
61324;BME280;47203;48.428;11.974;2023-12-29T08:36:37;96861.25;;;13.74;42.99
61324;BME280;47203;48.428;11.974;2023-12-29T08:38:40;96869.41;;;13.77;42.98
61324;BME280;47203;48.428;11.974;2023-12-29T08:40:44;96874.94;;;13.81;43.01
61324;BME280;47203;48.428;11.974;2023-12-29T08:42:47;96874.94;;;13.81;43.06
61324;BME280;47203;48.428;11.974;2023-12-29T08:44:52;96873.88;;;13.82;43.09
61324;BME280;47203;48.428;11.974;2023-12-29T08:46:54;96873.53;;;13.89;43.06
61324;BME280;47203;48.428;11.974;2023-12-29T08:48:58;96880.63;;;13.93;43.37
61324;BME280;47203;48.428;11.974;2023-12-29T08:51:03;96855.47;;;13.96;43.42
61324;BME280;47203;48.428;11.974;2023-12-29T08:53:06;96860.19;;;13.99;43.44
61324;BME280;47203;48.428;11.974;2023-12-29T08:55:11;96866.00;;;14.01;43.30
61324;BME280;47203;48.428;11.974;2023-12-29T08:57:14;96873.63;;;14.03;43.54
61324;BME280;47203;48.428;11.974;2023-12-29T08:59:17;96871.72;;;14.08;43.46
61324;BME280;47203;48.428;11.974;2023-12-29T09:01:22;96870.03;;;14.18;43.54
61324;BME280;47203;48.428;11.974;2023-12-29T09:03:26;96872.81;;;14.26;43.46
61324;BME280;47203;48.428;11.974;2023-12-29T09:05:30;96862.97;;;14.32;43.56
61324;BME280;47203;48.428;11.974;2023-12-29T09:07:34;96861.63;;;14.35;43.18
61324;BME280;47203;48.428;11.974;2023-12-29T09:09:36;96859.97;;;14.39;43.56
61324;BME280;47203;48.428;11.974;2023-12-29T09:11:43;96853.53;;;14.45;43.49
61324;BME280;47203;48.428;11.974;2023-12-29T09:13:48;96853.69;;;14.54;43.62
61324;BME280;47203;48.428;11.974;2023-12-29T09:15:51;96856.50;;;14.62;43.45
61324;BME280;47203;48.428;11.974;2023-12-29T09:17:57;96852.13;;;14.72;43.29
61324;BME280;47203;48.428;11.974;2023-12-29T09:20:02;96862.09;;;14.80;43.38
61324;BME280;47203;48.428;11.974;2023-12-29T09:22:12;96854.91;;;14.80;43.29
61324;BME280;47203;48.428;11.974;2023-12-29T09:24:16;96862.09;;;14.80;43.28
61324;BME280;47203;48.428;11.974;2023-12-29T09:26:19;96862.19;;;14.75;43.38
61324;BME280;47203;48.428;11.974;2023-12-29T09:28:22;96868.03;;;14.72;43.45
61324;BME280;47203;48.428;11.974;2023-12-29T09:30:26;96865.38;;;14.72;43.48
61324;BME280;47203;48.428;11.974;2023-12-29T09:32:29;96873.25;;;14.77;43.34
61324;BME280;47203;48.428;11.974;2023-12-29T09:34:34;96869.16;;;14.84;43.56
61324;BME280;47203;48.428;11.974;2023-12-29T09:36:38;96870.41;;;14.92;43.50
61324;BME280;47203;48.428;11.974;2023-12-29T09:38:41;96878.06;;;14.94;43.44
61324;BME280;47203;48.428;11.974;2023-12-29T09:40:49;96863.94;;;14.98;43.60
61324;BME280;47203;48.428;11.974;2023-12-29T09:42:54;96865.72;;;15.03;43.27
61324;BME280;47203;48.428;11.974;2023-12-29T09:45:02;96867.50;;;15.08;43.29
61324;BME280;47203;48.428;11.974;2023-12-29T09:47:09;96873.81;;;15.12;43.35
61324;BME280;47203;48.428;11.974;2023-12-29T09:49:15;96875.59;;;15.16;43.17
61324;BME280;47203;48.428;11.974;2023-12-29T09:51:22;96859.69;;;15.16;43.10
61324;BME280;47203;48.428;11.974;2023-12-29T09:53:26;96854.84;;;15.18;43.16
61324;BME280;47203;48.428;11.974;2023-12-29T09:55:31;96860.44;;;15.17;43.16
61324;BME280;47203;48.428;11.974;2023-12-29T09:57:36;96860.16;;;15.18;43.28
61324;BME280;47203;48.428;11.974;2023-12-29T09:59:42;96857.81;;;15.17;43.03
61324;BME280;47203;48.428;11.974;2023-12-29T10:01:47;96853.00;;;15.19;43.37
61324;BME280;47203;48.428;11.974;2023-12-29T10:03:50;96845.94;;;15.14;43.33
61324;BME280;47203;48.428;11.974;2023-12-29T10:05:58;96849.38;;;15.15;43.26
61324;BME280;47203;48.428;11.974;2023-12-29T10:08:07;96849.16;;;15.11;43.41
61324;BME280;47203;48.428;11.974;2023-12-29T10:10:16;96856.59;;;15.09;43.44
61324;BME280;47203;48.428;11.974;2023-12-29T10:12:21;96856.31;;;15.11;43.57
61324;BME280;47203;48.428;11.974;2023-12-29T10:14:30;96849.16;;;15.11;43.72
61324;BME280;47203;48.428;11.974;2023-12-29T10:16:43;96850.53;;;15.09;43.78
61324;BME280;47203;48.428;11.974;2023-12-29T10:19:02;96844.72;;;15.07;43.67
61324;BME280;47203;48.428;11.974;2023-12-29T10:21:23;96839.41;;;15.07;43.73
61324;BME280;47203;48.428;11.974;2023-12-29T10:23:40;96832.84;;;15.04;43.56
61324;BME280;47203;48.428;11.974;2023-12-29T10:25:47;96830.38;;;15.08;43.50
61324;BME280;47203;48.428;11.974;2023-12-29T10:27:51;96839.41;;;15.07;43.87
61324;BME280;47203;48.428;11.974;2023-12-29T10:29:55;96833.34;;;15.06;43.86
61324;BME280;47203;48.428;11.974;2023-12-29T10:31:58;96835.22;;;15.06;43.86
61324;BME280;47203;48.428;11.974;2023-12-29T10:34:17;96825.75;;;14.99;43.89
61324;BME280;47203;48.428;11.974;2023-12-29T10:36:21;96828.63;;;15.03;43.95
61324;BME280;47203;48.428;11.974;2023-12-29T10:38:25;96828.63;;;15.03;43.78
61324;BME280;47203;48.428;11.974;2023-12-29T10:40:29;96824.38;;;15.02;43.84
61324;BME280;47203;48.428;11.974;2023-12-29T10:42:34;96819.88;;;15.03;43.75
61324;BME280;47203;48.428;11.974;2023-12-29T10:44:38;96821.72;;;15.02;43.98
61324;BME280;47203;48.428;11.974;2023-12-29T10:46:42;96816.44;;;15.02;44.10
61324;BME280;47203;48.428;11.974;2023-12-29T10:48:45;96810.06;;;15.03;43.96
61324;BME280;47203;48.428;11.974;2023-12-29T10:50:49;96807.41;;;15.03;44.16
61324;BME280;47203;48.428;11.974;2023-12-29T10:53:10;96798.75;;;14.97;44.20